sensor_id;sensor_type;location;lat;lon;timestamp;temperature;humidity
67354;SHT30;54238;52.278;21.056;2023-07-02T00:02:28;21.42;64.77
67354;SHT30;54238;52.278;21.056;2023-07-02T00:04:57;21.42;64.83
67354;SHT30;54238;52.278;21.056;2023-07-02T00:07:25;21.41;64.90
67354;SHT30;54238;52.278;21.056;2023-07-02T00:09:57;21.40;64.88
67354;SHT30;54238;52.278;21.056;2023-07-02T00:12:29;21.39;64.96
67354;SHT30;54238;52.278;21.056;2023-07-02T00:14:59;21.39;64.90
67354;SHT30;54238;52.278;21.056;2023-07-02T00:17:32;21.38;65.00
67354;SHT30;54238;52.278;21.056;2023-07-02T00:19:59;21.36;65.11
67354;SHT30;54238;52.278;21.056;2023-07-02T00:22:36;21.36;65.10
67354;SHT30;54238;52.278;21.056;2023-07-02T00:25:05;21.34;65.12
67354;SHT30;54238;52.278;21.056;2023-07-02T00:27:35;21.33;65.25
67354;SHT30;54238;52.278;21.056;2023-07-02T00:30:09;21.31;65.45
67354;SHT30;54238;52.278;21.056;2023-07-02T00:32:36;21.25;65.54
67354;SHT30;54238;52.278;21.056;2023-07-02T00:35:06;21.22;65.67
67354;SHT30;54238;52.278;21.056;2023-07-02T00:37:35;21.21;65.95
67354;SHT30;54238;52.278;21.056;2023-07-02T00:40:10;21.18;66.20
67354;SHT30;54238;52.278;21.056;2023-07-02T00:42:37;21.12;66.55
67354;SHT30;54238;52.278;21.056;2023-07-02T00:45:07;21.02;66.88
67354;SHT30;54238;52.278;21.056;2023-07-02T00:47:35;20.96;67.21
67354;SHT30;54238;52.278;21.056;2023-07-02T00:50:02;20.93;67.37
67354;SHT30;54238;52.278;21.056;2023-07-02T00:52:34;20.90;67.59
67354;SHT30;54238;52.278;21.056;2023-07-02T00:55:08;20.90;67.72
67354;SHT30;54238;52.278;21.056;2023-07-02T00:57:36;20.89;67.88
67354;SHT30;54238;52.278;21.056;2023-07-02T01:00:10;20.88;67.96
67354;SHT30;54238;52.278;21.056;2023-07-02T01:02:38;20.87;68.08
67354;SHT30;54238;52.278;21.056;2023-07-02T01:05:14;20.85;68.12
67354;SHT30;54238;52.278;21.056;2023-07-02T01:07:42;20.85;68.23
67354;SHT30;54238;52.278;21.056;2023-07-02T01:10:09;20.83;68.30
67354;SHT30;54238;52.278;21.056;2023-07-02T01:12:36;20.82;68.36
67354;SHT30;54238;52.278;21.056;2023-07-02T01:15:07;20.80;68.41
67354;SHT30;54238;52.278;21.056;2023-07-02T01:17:40;20.78;68.52
67354;SHT30;54238;52.278;21.056;2023-07-02T01:20:13;20.76;68.63
67354;SHT30;54238;52.278;21.056;2023-07-02T01:22:45;20.72;68.81
67354;SHT30;54238;52.278;21.056;2023-07-02T01:25:20;20.69;68.85
67354;SHT30;54238;52.278;21.056;2023-07-02T01:27:53;20.67;68.98
67354;SHT30;54238;52.278;21.056;2023-07-02T01:30:22;20.65;69.06
67354;SHT30;54238;52.278;21.056;2023-07-02T01:32:49;20.62;69.17
67354;SHT30;54238;52.278;21.056;2023-07-02T01:35:18;20.60;69.25
67354;SHT30;54238;52.278;21.056;2023-07-02T01:37:50;20.59;69.30
67354;SHT30;54238;52.278;21.056;2023-07-02T01:40:20;20.56;69.36
67354;SHT30;54238;52.278;21.056;2023-07-02T01:42:55;20.54;69.42
67354;SHT30;54238;52.278;21.056;2023-07-02T01:45:25;20.53;69.49
67354;SHT30;54238;52.278;21.056;2023-07-02T01:47:55;20.53;69.47
67354;SHT30;54238;52.278;21.056;2023-07-02T01:50:22;20.53;69.50
67354;SHT30;54238;52.278;21.056;2023-07-02T01:52:54;20.55;69.47
67354;SHT30;54238;52.278;21.056;2023-07-02T01:55:26;20.56;69.46
67354;SHT30;54238;52.278;21.056;2023-07-02T01:58:01;20.59;69.40
67354;SHT30;54238;52.278;21.056;2023-07-02T02:00:30;20.62;69.40
67354;SHT30;54238;52.278;21.056;2023-07-02T02:02:59;20.62;69.43
67354;SHT30;54238;52.278;21.056;2023-07-02T02:05:29;20.61;69.59
67354;SHT30;54238;52.278;21.056;2023-07-02T02:07:58;20.60;69.61
67354;SHT30;54238;52.278;21.056;2023-07-02T02:10:28;20.60;69.66
67354;SHT30;54238;52.278;21.056;2023-07-02T02:12:59;20.60;69.71
67354;SHT30;54238;52.278;21.056;2023-07-02T02:15:29;20.58;69.68
67354;SHT30;54238;52.278;21.056;2023-07-02T02:18:00;20.60;69.63
67354;SHT30;54238;52.278;21.056;2023-07-02T02:20:29;20.61;69.51
67354;SHT30;54238;52.278;21.056;2023-07-02T02:23:02;20.63;69.35
67354;SHT30;54238;52.278;21.056;2023-07-02T02:25:32;20.67;69.21
67354;SHT30;54238;52.278;21.056;2023-07-02T02:28:03;20.70;69.18
67354;SHT30;54238;52.278;21.056;2023-07-02T02:30:40;20.70;68.99
67354;SHT30;54238;52.278;21.056;2023-07-02T02:33:09;20.73;68.87
67354;SHT30;54238;52.278;21.056;2023-07-02T02:35:41;20.76;68.83
67354;SHT30;54238;52.278;21.056;2023-07-02T02:38:13;20.78;68.83
67354;SHT30;54238;52.278;21.056;2023-07-02T02:40:45;20.79;68.70
67354;SHT30;54238;52.278;21.056;2023-07-02T02:43:12;20.80;68.76
67354;SHT30;54238;52.278;21.056;2023-07-02T02:45:39;20.80;68.69
67354;SHT30;54238;52.278;21.056;2023-07-02T02:48:09;20.82;68.59
67354;SHT30;54238;52.278;21.056;2023-07-02T02:50:38;20.82;68.65
67354;SHT30;54238;52.278;21.056;2023-07-02T02:53:10;20.83;68.76
67354;SHT30;54238;52.278;21.056;2023-07-02T02:55:39;20.85;68.79
67354;SHT30;54238;52.278;21.056;2023-07-02T02:58:09;20.86;68.76
67354;SHT30;54238;52.278;21.056;2023-07-02T03:00:41;20.88;68.70
67354;SHT30;54238;52.278;21.056;2023-07-02T03:03:12;20.89;68.64
67354;SHT30;54238;52.278;21.056;2023-07-02T03:05:40;20.92;68.54
67354;SHT30;54238;52.278;21.056;2023-07-02T03:08:10;20.94;68.48
67354;SHT30;54238;52.278;21.056;2023-07-02T03:10:38;20.96;68.14
67354;SHT30;54238;52.278;21.056;2023-07-02T03:13:07;20.97;66.99
67354;SHT30;54238;52.278;21.056;2023-07-02T03:15:36;20.97;66.56
67354;SHT30;54238;52.278;21.056;2023-07-02T03:18:05;20.97;66.24
67354;SHT30;54238;52.278;21.056;2023-07-02T03:20:35;20.96;66.03
67354;SHT30;54238;52.278;21.056;2023-07-02T03:23:05;20.97;65.80
67354;SHT30;54238;52.278;21.056;2023-07-02T03:25:35;20.98;65.61
67354;SHT30;54238;52.278;21.056;2023-07-02T03:28:05;21.01;65.34
67354;SHT30;54238;52.278;21.056;2023-07-02T03:30:32;21.05;65.19
67354;SHT30;54238;52.278;21.056;2023-07-02T03:33:04;21.08;64.85
67354;SHT30;54238;52.278;21.056;2023-07-02T03:35:31;21.11;64.52
67354;SHT30;54238;52.278;21.056;2023-07-02T03:38:02;21.13;64.15
67354;SHT30;54238;52.278;21.056;2023-07-02T03:40:32;21.17;63.94
67354;SHT30;54238;52.278;21.056;2023-07-02T03:43:02;21.22;63.52
67354;SHT30;54238;52.278;21.056;2023-07-02T03:45:29;21.28;63.07
67354;SHT30;54238;52.278;21.056;2023-07-02T03:48:03;21.33;62.82
67354;SHT30;54238;52.278;21.056;2023-07-02T03:50:31;21.38;62.79
67354;SHT30;54238;52.278;21.056;2023-07-02T03:52:58;21.41;62.05
67354;SHT30;54238;52.278;21.056;2023-07-02T03:55:27;21.45;62.24
67354;SHT30;54238;52.278;21.056;2023-07-02T03:57:59;21.50;61.95
67354;SHT30;54238;52.278;21.056;2023-07-02T04:00:29;21.56;61.68
67354;SHT30;54238;52.278;21.056;2023-07-02T04:02:59;21.61;61.69
67354;SHT30;54238;52.278;21.056;2023-07-02T04:05:36;21.65;61.65
67354;SHT30;54238;52.278;21.056;2023-07-02T04:08:07;21.67;61.61
67354;SHT30;54238;52.278;21.056;2023-07-02T04:10:37;21.71;61.59
67354;SHT30;54238;52.278;21.056;2023-07-02T04:13:04;21.75;61.58
67354;SHT30;54238;52.278;21.056;2023-07-02T04:15:34;21.80;60.61
67354;SHT30;54238;52.278;21.056;2023-07-02T04:18:02;21.84;59.91
67354;SHT30;54238;52.278;21.056;2023-07-02T04:20:29;21.88;59.86
67354;SHT30;54238;52.278;21.056;2023-07-02T04:22:59;21.91;59.31
67354;SHT30;54238;52.278;21.056;2023-07-02T04:25:28;21.97;59.33
67354;SHT30;54238;52.278;21.056;2023-07-02T04:28:00;22.01;58.49
67354;SHT30;54238;52.278;21.056;2023-07-02T04:30:30;22.04;58.06
67354;SHT30;54238;52.278;21.056;2023-07-02T04:33:01;22.07;57.70
67354;SHT30;54238;52.278;21.056;2023-07-02T04:35:28;22.10;57.28
67354;SHT30;54238;52.278;21.056;2023-07-02T04:37:58;22.13;57.28
67354;SHT30;54238;52.278;21.056;2023-07-02T04:40:27;22.17;57.54
67354;SHT30;54238;52.278;21.056;2023-07-02T04:42:54;22.19;57.53
67354;SHT30;54238;52.278;21.056;2023-07-02T04:45:27;22.22;57.04
67354;SHT30;54238;52.278;21.056;2023-07-02T04:47:59;22.22;55.97
67354;SHT30;54238;52.278;21.056;2023-07-02T04:50:31;22.20;55.61
67354;SHT30;54238;52.278;21.056;2023-07-02T04:52:58;22.17;55.75
67354;SHT30;54238;52.278;21.056;2023-07-02T04:55:27;22.14;56.21
67354;SHT30;54238;52.278;21.056;2023-07-02T04:57:56;22.12;56.59
67354;SHT30;54238;52.278;21.056;2023-07-02T05:00:26;22.07;56.62
67354;SHT30;54238;52.278;21.056;2023-07-02T05:02:54;22.01;56.93
67354;SHT30;54238;52.278;21.056;2023-07-02T05:05:21;21.97;57.20
67354;SHT30;54238;52.278;21.056;2023-07-02T05:07:50;21.94;57.49
67354;SHT30;54238;52.278;21.056;2023-07-02T05:10:17;21.90;57.69
67354;SHT30;54238;52.278;21.056;2023-07-02T05:12:49;21.84;57.60
67354;SHT30;54238;52.278;21.056;2023-07-02T05:15:18;21.83;57.46
67354;SHT30;54238;52.278;21.056;2023-07-02T05:17:50;21.83;57.40
67354;SHT30;54238;52.278;21.056;2023-07-02T05:20:22;21.83;57.48
67354;SHT30;54238;52.278;21.056;2023-07-02T05:22:49;21.86;57.47
67354;SHT30;54238;52.278;21.056;2023-07-02T05:25:16;21.87;57.33
67354;SHT30;54238;52.278;21.056;2023-07-02T05:27:46;21.89;57.48
67354;SHT30;54238;52.278;21.056;2023-07-02T05:30:14;21.91;56.92
67354;SHT30;54238;52.278;21.056;2023-07-02T05:32:44;21.92;56.70
67354;SHT30;54238;52.278;21.056;2023-07-02T05:35:11;21.93;56.86
67354;SHT30;54238;52.278;21.056;2023-07-02T05:37:38;21.93;56.77
67354;SHT30;54238;52.278;21.056;2023-07-02T05:40:07;21.95;56.23
67354;SHT30;54238;52.278;21.056;2023-07-02T05:42:37;21.98;55.98
67354;SHT30;54238;52.278;21.056;2023-07-02T05:45:12;22.00;55.72
67354;SHT30;54238;52.278;21.056;2023-07-02T05:47:41;22.04;55.43
67354;SHT30;54238;52.278;21.056;2023-07-02T05:50:08;22.09;55.11
67354;SHT30;54238;52.278;21.056;2023-07-02T05:52:38;22.13;55.08
67354;SHT30;54238;52.278;21.056;2023-07-02T05:55:08;22.15;54.32
67354;SHT30;54238;52.278;21.056;2023-07-02T05:57:43;22.14;54.12
67354;SHT30;54238;52.278;21.056;2023-07-02T06:00:15;22.14;54.19
67354;SHT30;54238;52.278;21.056;2023-07-02T06:02:48;22.15;54.13
67354;SHT30;54238;52.278;21.056;2023-07-02T06:05:15;22.14;53.98
67354;SHT30;54238;52.278;21.056;2023-07-02T06:07:49;22.13;53.93
67354;SHT30;54238;52.278;21.056;2023-07-02T06:10:16;22.15;54.11
67354;SHT30;54238;52.278;21.056;2023-07-02T06:12:45;22.17;54.08
67354;SHT30;54238;52.278;21.056;2023-07-02T06:15:16;22.22;54.21
67354;SHT30;54238;52.278;21.056;2023-07-02T06:17:44;22.24;54.12
67354;SHT30;54238;52.278;21.056;2023-07-02T06:20:13;22.25;54.26
67354;SHT30;54238;52.278;21.056;2023-07-02T06:22:44;22.26;54.57
67354;SHT30;54238;52.278;21.056;2023-07-02T06:25:11;22.27;54.77
67354;SHT30;54238;52.278;21.056;2023-07-02T06:27:42;22.26;54.98
67354;SHT30;54238;52.278;21.056;2023-07-02T06:30:09;22.22;55.13
67354;SHT30;54238;52.278;21.056;2023-07-02T06:32:39;22.16;55.40
67354;SHT30;54238;52.278;21.056;2023-07-02T06:35:12;22.10;55.82
67354;SHT30;54238;52.278;21.056;2023-07-02T06:37:45;22.08;56.11
67354;SHT30;54238;52.278;21.056;2023-07-02T06:40:17;22.05;56.32
67354;SHT30;54238;52.278;21.056;2023-07-02T06:42:44;22.02;56.51
67354;SHT30;54238;52.278;21.056;2023-07-02T06:45:11;22.08;56.62
67354;SHT30;54238;52.278;21.056;2023-07-02T06:47:41;22.21;56.73
67354;SHT30;54238;52.278;21.056;2023-07-02T06:50:15;22.34;56.58
67354;SHT30;54238;52.278;21.056;2023-07-02T06:52:45;22.40;56.52
67354;SHT30;54238;52.278;21.056;2023-07-02T06:55:14;22.44;56.59
67354;SHT30;54238;52.278;21.056;2023-07-02T06:57:42;22.46;56.62
67354;SHT30;54238;52.278;21.056;2023-07-02T07:00:14;22.46;56.70
67354;SHT30;54238;52.278;21.056;2023-07-02T07:02:42;22.45;56.80
67354;SHT30;54238;52.278;21.056;2023-07-02T07:05:11;22.47;57.12
67354;SHT30;54238;52.278;21.056;2023-07-02T07:07:43;22.50;57.17
67354;SHT30;54238;52.278;21.056;2023-07-02T07:10:16;22.52;57.29
67354;SHT30;54238;52.278;21.056;2023-07-02T07:12:50;22.58;57.42
67354;SHT30;54238;52.278;21.056;2023-07-02T07:15:20;22.64;57.38
67354;SHT30;54238;52.278;21.056;2023-07-02T07:17:47;22.68;57.25
67354;SHT30;54238;52.278;21.056;2023-07-02T07:20:14;22.63;57.57
67354;SHT30;54238;52.278;21.056;2023-07-02T07:22:41;22.62;58.04
67354;SHT30;54238;52.278;21.056;2023-07-02T07:25:14;22.49;58.79
67354;SHT30;54238;52.278;21.056;2023-07-02T07:27:46;22.34;59.53
67354;SHT30;54238;52.278;21.056;2023-07-02T07:30:20;22.18;60.24
67354;SHT30;54238;52.278;21.056;2023-07-02T07:32:51;21.97;61.35
67354;SHT30;54238;52.278;21.056;2023-07-02T07:35:23;21.77;62.36
67354;SHT30;54238;52.278;21.056;2023-07-02T07:37:55;21.61;63.38
67354;SHT30;54238;52.278;21.056;2023-07-02T07:40:23;21.52;63.78
67354;SHT30;54238;52.278;21.056;2023-07-02T07:42:54;21.45;64.40
67354;SHT30;54238;52.278;21.056;2023-07-02T07:45:26;21.45;64.77
67354;SHT30;54238;52.278;21.056;2023-07-02T07:47:55;21.44;65.01
67354;SHT30;54238;52.278;21.056;2023-07-02T07:50:27;21.45;65.00
67354;SHT30;54238;52.278;21.056;2023-07-02T07:52:57;21.40;65.41
67354;SHT30;54238;52.278;21.056;2023-07-02T07:55:27;21.39;65.69
67354;SHT30;54238;52.278;21.056;2023-07-02T07:57:54;21.37;65.70
67354;SHT30;54238;52.278;21.056;2023-07-02T08:00:24;21.36;66.11
67354;SHT30;54238;52.278;21.056;2023-07-02T08:02:56;21.31;66.27
67354;SHT30;54238;52.278;21.056;2023-07-02T08:05:27;21.24;66.65
67354;SHT30;54238;52.278;21.056;2023-07-02T08:07:55;21.23;66.86
67354;SHT30;54238;52.278;21.056;2023-07-02T08:10:27;21.23;66.94
67354;SHT30;54238;52.278;21.056;2023-07-02T08:12:59;21.22;66.99
67354;SHT30;54238;52.278;21.056;2023-07-02T08:15:30;21.29;67.00
67354;SHT30;54238;52.278;21.056;2023-07-02T08:18:00;21.39;66.74
67354;SHT30;54238;52.278;21.056;2023-07-02T08:20:30;21.42;66.46
67354;SHT30;54238;52.278;21.056;2023-07-02T08:22:59;21.43;66.57
67354;SHT30;54238;52.278;21.056;2023-07-02T08:25:29;21.48;66.58
67354;SHT30;54238;52.278;21.056;2023-07-02T08:27:58;21.60;66.49
67354;SHT30;54238;52.278;21.056;2023-07-02T08:30:27;21.72;66.20
67354;SHT30;54238;52.278;21.056;2023-07-02T08:32:57;21.83;65.96
67354;SHT30;54238;52.278;21.056;2023-07-02T08:35:27;21.97;65.55
67354;SHT30;54238;52.278;21.056;2023-07-02T08:37:56;22.04;65.07
67354;SHT30;54238;52.278;21.056;2023-07-02T08:40:27;22.09;65.17
67354;SHT30;54238;52.278;21.056;2023-07-02T08:42:59;22.02;64.76
67354;SHT30;54238;52.278;21.056;2023-07-02T08:45:26;21.91;65.04
67354;SHT30;54238;52.278;21.056;2023-07-02T08:47:53;21.82;65.32
67354;SHT30;54238;52.278;21.056;2023-07-02T08:50:24;21.72;65.65
67354;SHT30;54238;52.278;21.056;2023-07-02T08:52:54;21.62;66.08
67354;SHT30;54238;52.278;21.056;2023-07-02T08:55:28;21.56;66.20
67354;SHT30;54238;52.278;21.056;2023-07-02T08:58:00;21.48;66.29
67354;SHT30;54238;52.278;21.056;2023-07-02T09:00:30;21.44;66.30
67354;SHT30;54238;52.278;21.056;2023-07-02T09:06:07;21.50;66.50
67354;SHT30;54238;52.278;21.056;2023-07-02T09:08:36;21.55;66.47
67354;SHT30;54238;52.278;21.056;2023-07-02T09:13:45;21.70;66.19
67354;SHT30;54238;52.278;21.056;2023-07-02T09:16:28;21.74;65.83
67354;SHT30;54238;52.278;21.056;2023-07-02T09:18:58;21.79;65.71
67354;SHT30;54238;52.278;21.056;2023-07-02T09:21:45;21.87;65.69
67354;SHT30;54238;52.278;21.056;2023-07-02T09:24:18;21.92;65.15
67354;SHT30;54238;52.278;21.056;2023-07-02T09:26:48;21.98;65.05
67354;SHT30;54238;52.278;21.056;2023-07-02T09:32:01;22.06;64.77
67354;SHT30;54238;52.278;21.056;2023-07-02T09:34:37;22.11;64.77
67354;SHT30;54238;52.278;21.056;2023-07-02T09:37:10;22.12;64.70
67354;SHT30;54238;52.278;21.056;2023-07-02T09:39:40;22.13;64.72
67354;SHT30;54238;52.278;21.056;2023-07-02T09:42:10;22.19;64.59
67354;SHT30;54238;52.278;21.056;2023-07-02T09:44:41;22.23;64.19
67354;SHT30;54238;52.278;21.056;2023-07-02T09:47:12;22.27;63.93
67354;SHT30;54238;52.278;21.056;2023-07-02T09:50:03;22.33;63.76
67354;SHT30;54238;52.278;21.056;2023-07-02T09:52:37;22.57;63.65
67354;SHT30;54238;52.278;21.056;2023-07-02T09:55:06;22.95;63.13
67354;SHT30;54238;52.278;21.056;2023-07-02T09:57:37;23.35;61.81
67354;SHT30;54238;52.278;21.056;2023-07-02T10:08:36;23.75;58.73
67354;SHT30;54238;52.278;21.056;2023-07-02T10:11:08;23.68;58.83
67354;SHT30;54238;52.278;21.056;2023-07-02T10:13:37;23.63;58.41
67354;SHT30;54238;52.278;21.056;2023-07-02T10:16:06;23.73;58.42
67354;SHT30;54238;52.278;21.056;2023-07-02T10:18:34;23.86;58.06
67354;SHT30;54238;52.278;21.056;2023-07-02T10:21:17;23.96;57.83
67354;SHT30;54238;52.278;21.056;2023-07-02T10:23:44;24.37;57.40
67354;SHT30;54238;52.278;21.056;2023-07-02T10:26:16;24.75;56.30
67354;SHT30;54238;52.278;21.056;2023-07-02T10:29:03;25.12;54.86
67354;SHT30;54238;52.278;21.056;2023-07-02T10:31:32;25.19;53.85
67354;SHT30;54238;52.278;21.056;2023-07-02T10:34:02;25.32;53.92
67354;SHT30;54238;52.278;21.056;2023-07-02T10:36:29;25.42;53.04
67354;SHT30;54238;52.278;21.056;2023-07-02T10:39:00;25.61;52.33
67354;SHT30;54238;52.278;21.056;2023-07-02T10:41:34;25.75;51.63
67354;SHT30;54238;52.278;21.056;2023-07-02T10:44:09;25.64;50.49
67354;SHT30;54238;52.278;21.056;2023-07-02T10:46:48;25.39;50.51
67354;SHT30;54238;52.278;21.056;2023-07-02T10:49:18;25.01;51.09
67354;SHT30;54238;52.278;21.056;2023-07-02T10:52:10;24.66;51.77
67354;SHT30;54238;52.278;21.056;2023-07-02T10:57:10;24.02;53.79
67354;SHT30;54238;52.278;21.056;2023-07-02T10:59:41;23.78;54.45
67354;SHT30;54238;52.278;21.056;2023-07-02T11:02:13;23.59;55.14
67354;SHT30;54238;52.278;21.056;2023-07-02T11:04:44;23.39;55.75
67354;SHT30;54238;52.278;21.056;2023-07-02T11:07:13;23.20;56.47
67354;SHT30;54238;52.278;21.056;2023-07-02T11:09:51;23.05;57.30
67354;SHT30;54238;52.278;21.056;2023-07-02T11:12:26;22.93;58.61
67354;SHT30;54238;52.278;21.056;2023-07-02T11:15:06;22.76;59.80
67354;SHT30;54238;52.278;21.056;2023-07-02T11:17:41;22.58;61.18
67354;SHT30;54238;52.278;21.056;2023-07-02T11:20:12;22.39;61.94
67354;SHT30;54238;52.278;21.056;2023-07-02T11:22:45;22.18;63.07
67354;SHT30;54238;52.278;21.056;2023-07-02T11:25:15;22.00;64.23
67354;SHT30;54238;52.278;21.056;2023-07-02T11:27:47;21.86;65.16
67354;SHT30;54238;52.278;21.056;2023-07-02T11:30:17;21.80;65.63
67354;SHT30;54238;52.278;21.056;2023-07-02T11:32:55;21.97;66.01
67354;SHT30;54238;52.278;21.056;2023-07-02T11:35:27;22.38;65.44
67354;SHT30;54238;52.278;21.056;2023-07-02T11:38:05;23.01;64.07
67354;SHT30;54238;52.278;21.056;2023-07-02T11:40:37;23.31;63.04
67354;SHT30;54238;52.278;21.056;2023-07-02T11:43:08;23.35;62.77
67354;SHT30;54238;52.278;21.056;2023-07-02T11:45:35;23.31;62.71
67354;SHT30;54238;52.278;21.056;2023-07-02T11:48:07;23.22;62.46
67354;SHT30;54238;52.278;21.056;2023-07-02T11:50:37;23.10;62.13
67354;SHT30;54238;52.278;21.056;2023-07-02T11:53:04;23.00;62.43
67354;SHT30;54238;52.278;21.056;2023-07-02T11:55:36;22.88;62.15
67354;SHT30;54238;52.278;21.056;2023-07-02T11:58:05;22.85;62.70
67354;SHT30;54238;52.278;21.056;2023-07-02T12:00:32;22.91;62.60
67354;SHT30;54238;52.278;21.056;2023-07-02T12:03:01;23.10;62.19
67354;SHT30;54238;52.278;21.056;2023-07-02T12:05:31;23.32;61.57
67354;SHT30;54238;52.278;21.056;2023-07-02T12:08:02;23.43;61.32
67354;SHT30;54238;52.278;21.056;2023-07-02T12:10:32;23.47;61.24
67354;SHT30;54238;52.278;21.056;2023-07-02T12:13:02;23.49;61.56
67354;SHT30;54238;52.278;21.056;2023-07-02T12:15:34;23.58;61.61
67354;SHT30;54238;52.278;21.056;2023-07-02T12:18:06;23.67;61.38
67354;SHT30;54238;52.278;21.056;2023-07-02T12:20:36;23.76;61.38
67354;SHT30;54238;52.278;21.056;2023-07-02T12:23:08;23.92;60.81
67354;SHT30;54238;52.278;21.056;2023-07-02T12:25:38;24.04;59.97
67354;SHT30;54238;52.278;21.056;2023-07-02T12:28:05;24.12;59.17
67354;SHT30;54238;52.278;21.056;2023-07-02T12:30:34;24.27;58.23
67354;SHT30;54238;52.278;21.056;2023-07-02T12:33:04;24.78;56.58
67354;SHT30;54238;52.278;21.056;2023-07-02T12:35:31;25.17;56.45
67354;SHT30;54238;52.278;21.056;2023-07-02T12:38:44;25.95;54.44
67354;SHT30;54238;52.278;21.056;2023-07-02T12:41:11;26.18;53.11
67354;SHT30;54238;52.278;21.056;2023-07-02T12:43:37;26.23;51.34
67354;SHT30;54238;52.278;21.056;2023-07-02T12:46:07;26.30;50.36
67354;SHT30;54238;52.278;21.056;2023-07-02T12:48:34;26.24;50.17
67354;SHT30;54238;52.278;21.056;2023-07-02T12:51:05;26.22;49.88
67354;SHT30;54238;52.278;21.056;2023-07-02T12:53:32;26.12;49.00
67354;SHT30;54238;52.278;21.056;2023-07-02T12:55:59;26.02;48.32
67354;SHT30;54238;52.278;21.056;2023-07-02T12:58:27;26.10;47.87
67354;SHT30;54238;52.278;21.056;2023-07-02T13:00:54;26.42;47.49
67354;SHT30;54238;52.278;21.056;2023-07-02T13:03:21;26.88;46.18
67354;SHT30;54238;52.278;21.056;2023-07-02T13:05:49;27.31;44.06
67354;SHT30;54238;52.278;21.056;2023-07-02T13:08:20;27.80;43.54
67354;SHT30;54238;52.278;21.056;2023-07-02T13:10:49;28.24;41.59
67354;SHT30;54238;52.278;21.056;2023-07-02T13:13:17;28.57;39.71
67354;SHT30;54238;52.278;21.056;2023-07-02T13:15:48;28.89;38.75
67354;SHT30;54238;52.278;21.056;2023-07-02T13:18:17;29.21;37.74
67354;SHT30;54238;52.278;21.056;2023-07-02T13:20:50;29.57;37.77
67354;SHT30;54238;52.278;21.056;2023-07-02T13:23:19;29.87;36.02
67354;SHT30;54238;52.278;21.056;2023-07-02T13:25:48;29.67;34.95
67354;SHT30;54238;52.278;21.056;2023-07-02T13:28:16;29.06;34.05
67354;SHT30;54238;52.278;21.056;2023-07-02T13:30:45;28.54;34.92
67354;SHT30;54238;52.278;21.056;2023-07-02T13:33:17;28.28;36.54
67354;SHT30;54238;52.278;21.056;2023-07-02T13:35:48;27.95;36.02
67354;SHT30;54238;52.278;21.056;2023-07-02T13:38:15;27.61;36.68
67354;SHT30;54238;52.278;21.056;2023-07-02T13:40:44;27.27;36.70
67354;SHT30;54238;52.278;21.056;2023-07-02T13:43:12;26.91;36.19
67354;SHT30;54238;52.278;21.056;2023-07-02T13:45:41;26.60;36.30
67354;SHT30;54238;52.278;21.056;2023-07-02T13:48:08;26.35;36.51
67354;SHT30;54238;52.278;21.056;2023-07-02T13:50:39;26.20;36.86
67354;SHT30;54238;52.278;21.056;2023-07-02T13:53:08;26.05;37.06
67354;SHT30;54238;52.278;21.056;2023-07-02T13:55:37;25.89;37.14
67354;SHT30;54238;52.278;21.056;2023-07-02T13:58:08;25.76;37.10
67354;SHT30;54238;52.278;21.056;2023-07-02T14:00:34;25.67;36.45
67354;SHT30;54238;52.278;21.056;2023-07-02T14:03:06;25.60;36.89
67354;SHT30;54238;52.278;21.056;2023-07-02T14:05:35;25.53;36.87
67354;SHT30;54238;52.278;21.056;2023-07-02T14:08:01;25.48;37.11
67354;SHT30;54238;52.278;21.056;2023-07-02T14:10:31;25.49;36.97
67354;SHT30;54238;52.278;21.056;2023-07-02T14:13:00;25.68;37.10
67354;SHT30;54238;52.278;21.056;2023-07-02T14:15:28;25.93;35.81
67354;SHT30;54238;52.278;21.056;2023-07-02T14:17:56;26.09;34.92
67354;SHT30;54238;52.278;21.056;2023-07-02T14:20:23;26.26;35.05
67354;SHT30;54238;52.278;21.056;2023-07-02T14:22:49;26.38;33.95
67354;SHT30;54238;52.278;21.056;2023-07-02T14:25:18;26.50;33.65
67354;SHT30;54238;52.278;21.056;2023-07-02T14:27:46;26.84;33.77
67354;SHT30;54238;52.278;21.056;2023-07-02T14:30:13;27.16;33.32
67354;SHT30;54238;52.278;21.056;2023-07-02T14:32:40;27.33;32.89
67354;SHT30;54238;52.278;21.056;2023-07-02T14:35:11;27.66;32.54
67354;SHT30;54238;52.278;21.056;2023-07-02T14:37:40;27.99;32.74
67354;SHT30;54238;52.278;21.056;2023-07-02T14:40:09;28.40;32.59
67354;SHT30;54238;52.278;21.056;2023-07-02T14:42:41;28.68;31.58
67354;SHT30;54238;52.278;21.056;2023-07-02T14:45:11;28.72;31.20
67354;SHT30;54238;52.278;21.056;2023-07-02T14:47:38;28.93;32.02
67354;SHT30;54238;52.278;21.056;2023-07-02T14:50:07;28.92;31.82
67354;SHT30;54238;52.278;21.056;2023-07-02T14:52:36;28.49;31.46
67354;SHT30;54238;52.278;21.056;2023-07-02T14:55:05;27.97;32.15
67354;SHT30;54238;52.278;21.056;2023-07-02T14:57:34;27.50;32.98
67354;SHT30;54238;52.278;21.056;2023-07-02T15:00:12;27.11;33.64
67354;SHT30;54238;52.278;21.056;2023-07-02T15:02:39;26.86;34.30
67354;SHT30;54238;52.278;21.056;2023-07-02T15:05:08;26.67;34.34
67354;SHT30;54238;52.278;21.056;2023-07-02T15:07:40;26.54;34.16
67354;SHT30;54238;52.278;21.056;2023-07-02T15:10:08;26.70;34.04
67354;SHT30;54238;52.278;21.056;2023-07-02T15:12:35;26.96;33.91
67354;SHT30;54238;52.278;21.056;2023-07-02T15:15:03;27.15;33.54
67354;SHT30;54238;52.278;21.056;2023-07-02T15:17:37;27.28;33.92
67354;SHT30;54238;52.278;21.056;2023-07-02T15:20:08;27.30;33.62
67354;SHT30;54238;52.278;21.056;2023-07-02T15:22:39;27.38;33.47
67354;SHT30;54238;52.278;21.056;2023-07-02T15:25:10;27.48;33.45
67354;SHT30;54238;52.278;21.056;2023-07-02T15:27:37;27.72;33.29
67354;SHT30;54238;52.278;21.056;2023-07-02T15:30:06;27.94;33.16
67354;SHT30;54238;52.278;21.056;2023-07-02T15:32:38;28.06;33.55
67354;SHT30;54238;52.278;21.056;2023-07-02T15:35:05;28.16;33.27
67354;SHT30;54238;52.278;21.056;2023-07-02T15:37:39;28.33;33.25
67354;SHT30;54238;52.278;21.056;2023-07-02T15:40:09;28.56;33.23
67354;SHT30;54238;52.278;21.056;2023-07-02T15:42:40;28.80;33.23
67354;SHT30;54238;52.278;21.056;2023-07-02T15:45:08;28.81;32.05
67354;SHT30;54238;52.278;21.056;2023-07-02T15:47:38;28.68;32.08
67354;SHT30;54238;52.278;21.056;2023-07-02T15:50:05;28.59;31.98
67354;SHT30;54238;52.278;21.056;2023-07-02T15:52:32;28.46;32.00
67354;SHT30;54238;52.278;21.056;2023-07-02T15:54:59;28.36;32.56